sensor_id;sensor_type;location;lat;lon;timestamp;pressure;altitude;pressure_sealevel;temperature;humidity
21086;BME280;34247;50.064;19.970;2023-02-02T00:00:39;98366.88;;;4.78;97.09
21086;BME280;34247;50.064;19.970;2023-02-02T00:02:00;98361.06;;;4.73;97.22
21086;BME280;34247;50.064;19.970;2023-02-02T00:03:06;98378.53;;;4.74;97.25
21086;BME280;34247;50.064;19.970;2023-02-02T00:04:31;98369.72;;;4.75;96.89
21086;BME280;34247;50.064;19.970;2023-02-02T00:05:50;98364.66;;;4.72;96.76
21086;BME280;34247;50.064;19.970;2023-02-02T00:06:57;98370.38;;;4.78;96.65
21086;BME280;34247;50.064;19.970;2023-02-02T00:08:04;98367.66;;;4.80;96.47
21086;BME280;34247;50.064;19.970;2023-02-02T00:09:20;98369.34;;;4.81;96.67
21086;BME280;34247;50.064;19.970;2023-02-02T00:10:39;98370.38;;;4.78;96.51
21086;BME280;34247;50.064;19.970;2023-02-02T00:11:51;98365.03;;;4.80;96.91
21086;BME280;34247;50.064;19.970;2023-02-02T00:13:01;98378.28;;;4.78;96.83
21086;BME280;34247;50.064;19.970;2023-02-02T00:14:11;98365.19;;;4.77;97.08
21086;BME280;34247;50.064;19.970;2023-02-02T00:15:17;98374.03;;;4.76;97.55
21086;BME280;34247;50.064;19.970;2023-02-02T00:17:33;98375.81;;;4.75;97.96
21086;BME280;34247;50.064;19.970;2023-02-02T00:18:37;98380.22;;;4.75;97.83
21086;BME280;34247;50.064;19.970;2023-02-02T00:19:41;98379.00;;;4.66;98.06
21086;BME280;34247;50.064;19.970;2023-02-02T00:20:45;98380.94;;;4.62;98.63
21086;BME280;34247;50.064;19.970;2023-02-02T00:21:53;98385.25;;;4.63;98.93
21086;BME280;34247;50.064;19.970;2023-02-02T00:22:57;98375.63;;;4.64;99.00
21086;BME280;34247;50.064;19.970;2023-02-02T00:24:01;98379.44;;;4.58;98.82
21086;BME280;34247;50.064;19.970;2023-02-02T00:25:06;98384.69;;;4.58;99.19
21086;BME280;34247;50.064;19.970;2023-02-02T00:26:10;98384.84;;;4.55;99.34
21086;BME280;34247;50.064;19.970;2023-02-02T00:27:15;98371.22;;;4.49;99.66
21086;BME280;34247;50.064;19.970;2023-02-02T00:28:24;98387.94;;;4.48;100.00
21086;BME280;34247;50.064;19.970;2023-02-02T00:29:31;98361.75;;;4.46;100.00
21086;BME280;34247;50.064;19.970;2023-02-02T00:30:42;98383.22;;;4.38;99.96
21086;BME280;34247;50.064;19.970;2023-02-02T00:31:57;98379.75;;;4.38;100.00
21086;BME280;34247;50.064;19.970;2023-02-02T00:33:12;98377.84;;;4.40;100.00
21086;BME280;34247;50.064;19.970;2023-02-02T00:34:24;98387.63;;;4.38;100.00
21086;BME280;34247;50.064;19.970;2023-02-02T00:35:32;98391.19;;;4.37;100.00
21086;BME280;34247;50.064;19.970;2023-02-02T00:36:54;98386.88;;;4.36;100.00
21086;BME280;34247;50.064;19.970;2023-02-02T00:38:13;98388.06;;;4.30;100.00
21086;BME280;34247;50.064;19.970;2023-02-02T00:39:24;98393.22;;;4.32;100.00
21086;BME280;34247;50.064;19.970;2023-02-02T00:40:54;98381.22;;;4.28;100.00
21086;BME280;34247;50.064;19.970;2023-02-02T00:41:58;98392.22;;;4.19;100.00
21086;BME280;34247;50.064;19.970;2023-02-02T00:43:17;98386.22;;;4.17;100.00
21086;BME280;34247;50.064;19.970;2023-02-02T00:44:22;98389.03;;;4.13;100.00
21086;BME280;34247;50.064;19.970;2023-02-02T00:45:47;98390.72;;;4.14;100.00
21086;BME280;34247;50.064;19.970;2023-02-02T00:47:00;98385.72;;;4.10;100.00
21086;BME280;34247;50.064;19.970;2023-02-02T00:48:21;98388.66;;;4.04;100.00
21086;BME280;34247;50.064;19.970;2023-02-02T00:49:37;98389.69;;;4.01;100.00
21086;BME280;34247;50.064;19.970;2023-02-02T00:50:53;98394.34;;;3.96;100.00
21086;BME280;34247;50.064;19.970;2023-02-02T00:52:17;98395.28;;;3.95;100.00
21086;BME280;34247;50.064;19.970;2023-02-02T00:53:21;98388.53;;;3.91;100.00
21086;BME280;34247;50.064;19.970;2023-02-02T00:54:29;98387.75;;;3.89;100.00
21086;BME280;34247;50.064;19.970;2023-02-02T00:55:37;98389.00;;;3.82;100.00
21086;BME280;34247;50.064;19.970;2023-02-02T00:56:56;98394.44;;;3.79;100.00
21086;BME280;34247;50.064;19.970;2023-02-02T00:58:15;98395.44;;;3.76;100.00
21086;BME280;34247;50.064;19.970;2023-02-02T00:59:22;98406.13;;;3.73;100.00
21086;BME280;34247;50.064;19.970;2023-02-02T01:00:37;98404.44;;;3.72;100.00
21086;BME280;34247;50.064;19.970;2023-02-02T01:02:13;98407.16;;;3.71;100.00
21086;BME280;34247;50.064;19.970;2023-02-02T01:03:34;98399.50;;;3.66;100.00
21086;BME280;34247;50.064;19.970;2023-02-02T01:04:42;98401.28;;;3.66;100.00
21086;BME280;34247;50.064;19.970;2023-02-02T01:05:56;98409.16;;;3.66;100.00
21086;BME280;34247;50.064;19.970;2023-02-02T01:07:15;98399.75;;;3.62;100.00
21086;BME280;34247;50.064;19.970;2023-02-02T01:08:43;98399.94;;;3.58;100.00
21086;BME280;34247;50.064;19.970;2023-02-02T01:10:18;98402.72;;;3.55;100.00
21086;BME280;34247;50.064;19.970;2023-02-02T01:11:28;98407.97;;;3.55;100.00
21086;BME280;34247;50.064;19.970;2023-02-02T01:12:58;98403.06;;;3.49;100.00
21086;BME280;34247;50.064;19.970;2023-02-02T01:14:04;98414.38;;;3.50;100.00
21086;BME280;34247;50.064;19.970;2023-02-02T01:15:22;98407.19;;;3.53;100.00
21086;BME280;34247;50.064;19.970;2023-02-02T01:16:32;98409.75;;;3.55;100.00
21086;BME280;34247;50.064;19.970;2023-02-02T01:17:37;98408.81;;;3.56;100.00
21086;BME280;34247;50.064;19.970;2023-02-02T01:18:44;98409.91;;;3.52;100.00
21086;BME280;34247;50.064;19.970;2023-02-02T01:19:53;98412.03;;;3.61;100.00
21086;BME280;34247;50.064;19.970;2023-02-02T01:21:05;98415.50;;;3.62;100.00
21086;BME280;34247;50.064;19.970;2023-02-02T01:22:13;98408.66;;;3.59;100.00
21086;BME280;34247;50.064;19.970;2023-02-02T01:23:24;98416.75;;;3.54;100.00
21086;BME280;34247;50.064;19.970;2023-02-02T01:24:50;98419.97;;;3.44;100.00
21086;BME280;34247;50.064;19.970;2023-02-02T01:26:27;98414.00;;;3.40;100.00
21086;BME280;34247;50.064;19.970;2023-02-02T01:27:38;98419.13;;;3.43;100.00
21086;BME280;34247;50.064;19.970;2023-02-02T01:28:51;98412.00;;;3.45;100.00
21086;BME280;34247;50.064;19.970;2023-02-02T01:30:06;98423.72;;;3.55;100.00
21086;BME280;34247;50.064;19.970;2023-02-02T01:31:19;98419.72;;;3.48;100.00
21086;BME280;34247;50.064;19.970;2023-02-02T01:32:31;98428.69;;;3.44;100.00
21086;BME280;34247;50.064;19.970;2023-02-02T01:33:40;98421.81;;;3.42;100.00
21086;BME280;34247;50.064;19.970;2023-02-02T01:35:09;98421.75;;;3.43;100.00
21086;BME280;34247;50.064;19.970;2023-02-02T01:36:29;98426.06;;;3.44;100.00
21086;BME280;34247;50.064;19.970;2023-02-02T01:37:38;98425.03;;;3.47;100.00
21086;BME280;34247;50.064;19.970;2023-02-02T01:38:47;98421.66;;;3.45;100.00
21086;BME280;34247;50.064;19.970;2023-02-02T01:39:54;98426.22;;;3.41;100.00
21086;BME280;34247;50.064;19.970;2023-02-02T01:41:02;98428.16;;;3.38;100.00
21086;BME280;34247;50.064;19.970;2023-02-02T01:42:21;98422.22;;;3.34;100.00
21086;BME280;34247;50.064;19.970;2023-02-02T01:46:23;98431.38;;;3.43;100.00
21086;BME280;34247;50.064;19.970;2023-02-02T01:47:53;98436.72;;;3.41;100.00
21086;BME280;34247;50.064;19.970;2023-02-02T01:49:02;98436.72;;;3.41;100.00
21086;BME280;34247;50.064;19.970;2023-02-02T01:50:11;98430.63;;;3.41;100.00
21086;BME280;34247;50.064;19.970;2023-02-02T01:51:21;98436.88;;;3.38;100.00
21086;BME280;34247;50.064;19.970;2023-02-02T01:52:32;98435.25;;;3.36;100.00
21086;BME280;34247;50.064;19.970;2023-02-02T01:53:40;98440.59;;;3.34;100.00
21086;BME280;34247;50.064;19.970;2023-02-02T01:55:10;98429.69;;;3.42;100.00
21086;BME280;34247;50.064;19.970;2023-02-02T01:57:00;98435.50;;;3.31;100.00
21086;BME280;34247;50.064;19.970;2023-02-02T01:58:17;98445.50;;;3.40;100.00
21086;BME280;34247;50.064;19.970;2023-02-02T01:59:31;98442.81;;;3.42;100.00
21086;BME280;34247;50.064;19.970;2023-02-02T02:00:46;98447.34;;;3.38;100.00
21086;BME280;34247;50.064;19.970;2023-02-02T02:01:55;98449.03;;;3.39;100.00
21086;BME280;34247;50.064;19.970;2023-02-02T02:03:19;98447.22;;;3.41;100.00
21086;BME280;34247;50.064;19.970;2023-02-02T02:04:30;98440.41;;;3.37;100.00
21086;BME280;34247;50.064;19.970;2023-02-02T02:06:10;98440.41;;;3.37;100.00
21086;BME280;34247;50.064;19.970;2023-02-02T02:07:48;98447.53;;;3.35;100.00
21086;BME280;34247;50.064;19.970;2023-02-02T02:09:14;98451.84;;;3.36;100.00
21086;BME280;34247;50.064;19.970;2023-02-02T02:10:21;98451.94;;;3.35;100.00
21086;BME280;34247;50.064;19.970;2023-02-02T02:11:42;98453.44;;;3.39;100.00
21086;BME280;34247;50.064;19.970;2023-02-02T02:12:56;98459.50;;;3.41;100.00
21086;BME280;34247;50.064;19.970;2023-02-02T02:14:09;98457.72;;;3.41;100.00
21086;BME280;34247;50.064;19.970;2023-02-02T02:15:55;98463.47;;;3.48;100.00
21086;BME280;34247;50.064;19.970;2023-02-02T02:18:08;98461.09;;;3.43;100.00
21086;BME280;34247;50.064;19.970;2023-02-02T02:27:27;98479.84;;;3.36;100.00
21086;BME280;34247;50.064;19.970;2023-02-02T02:31:18;98481.06;;;3.46;100.00
21086;BME280;34247;50.064;19.970;2023-02-02T02:38:16;98489.53;;;3.51;100.00
21086;BME280;34247;50.064;19.970;2023-02-02T02:39:54;98488.38;;;3.56;100.00
21086;BME280;34247;50.064;19.970;2023-02-02T02:41:13;98486.06;;;3.50;100.00
21086;BME280;34247;50.064;19.970;2023-02-02T02:42:34;98488.84;;;3.47;100.00
21086;BME280;34247;50.064;19.970;2023-02-02T02:44:15;98484.91;;;3.56;100.00
21086;BME280;34247;50.064;19.970;2023-02-02T02:45:22;98489.31;;;3.55;100.00
21086;BME280;34247;50.064;19.970;2023-02-02T02:46:37;98487.84;;;3.50;100.00
21086;BME280;34247;50.064;19.970;2023-02-02T02:47:43;98493.19;;;3.48;100.00
21086;BME280;34247;50.064;19.970;2023-02-02T02:49:02;98499.19;;;3.50;100.00
21086;BME280;34247;50.064;19.970;2023-02-02T02:50:11;98497.94;;;3.57;100.00
21086;BME280;34247;50.064;19.970;2023-02-02T02:51:48;98501.34;;;3.59;100.00
21086;BME280;34247;50.064;19.970;2023-02-02T02:53:19;98505.81;;;3.57;100.00
21086;BME280;34247;50.064;19.970;2023-02-02T02:54:51;98503.03;;;3.60;100.00
21086;BME280;34247;50.064;19.970;2023-02-02T02:56:52;98508.03;;;3.65;100.00
21086;BME280;34247;50.064;19.970;2023-02-02T02:59:35;98502.94;;;3.62;100.00
21086;BME280;34247;50.064;19.970;2023-02-02T03:01:06;98500.94;;;3.67;100.00
21086;BME280;34247;50.064;19.970;2023-02-02T03:04:46;98514.13;;;3.66;100.00
21086;BME280;34247;50.064;19.970;2023-02-02T03:06:46;98499.63;;;3.58;100.00
21086;BME280;34247;50.064;19.970;2023-02-02T03:08:32;98517.00;;;3.61;100.00
21086;BME280;34247;50.064;19.970;2023-02-02T03:09:59;98510.91;;;3.60;100.00
21086;BME280;34247;50.064;19.970;2023-02-02T03:11:23;98514.63;;;3.56;100.00
21086;BME280;34247;50.064;19.970;2023-02-02T03:12:28;98514.63;;;3.56;100.00
21086;BME280;34247;50.064;19.970;2023-02-02T03:13:34;98521.41;;;3.60;100.00
21086;BME280;34247;50.064;19.970;2023-02-02T03:14:42;98515.22;;;3.62;100.00
21086;BME280;34247;50.064;19.970;2023-02-02T03:15:53;98510.38;;;3.54;100.00
21086;BME280;34247;50.064;19.970;2023-02-02T03:16:57;98507.81;;;3.52;100.00
21086;BME280;34247;50.064;19.970;2023-02-02T03:18:28;98517.69;;;3.47;100.00
21086;BME280;34247;50.064;19.970;2023-02-02T03:19:49;98508.84;;;3.50;100.00
21086;BME280;34247;50.064;19.970;2023-02-02T03:20:57;98512.41;;;3.49;100.00
21086;BME280;34247;50.064;19.970;2023-02-02T03:22:17;98512.22;;;3.52;100.00
21086;BME280;34247;50.064;19.970;2023-02-02T03:23:38;98516.72;;;3.50;100.00
21086;BME280;34247;50.064;19.970;2023-02-02T03:24:45;98513.78;;;3.39;100.00
21086;BME280;34247;50.064;19.970;2023-02-02T03:25:58;98528.19;;;3.47;100.00
21086;BME280;34247;50.064;19.970;2023-02-02T03:27:09;98527.13;;;3.51;100.00
21086;BME280;34247;50.064;19.970;2023-02-02T03:28:22;98521.41;;;3.60;100.00
21086;BME280;34247;50.064;19.970;2023-02-02T03:29:28;98526.06;;;3.55;100.00
21086;BME280;34247;50.064;19.970;2023-02-02T03:30:56;98527.97;;;3.52;100.00
21086;BME280;34247;50.064;19.970;2023-02-02T03:32:21;98527.84;;;3.55;100.00
21086;BME280;34247;50.064;19.970;2023-02-02T03:33:35;98530.38;;;3.56;100.00
21086;BME280;34247;50.064;19.970;2023-02-02T03:34:46;98533.59;;;3.62;100.00
21086;BME280;34247;50.064;19.970;2023-02-02T03:35:53;98539.00;;;3.58;100.00
21086;BME280;34247;50.064;19.970;2023-02-02T03:37:33;98528.59;;;3.57;100.00
21086;BME280;34247;50.064;19.970;2023-02-02T03:38:38;98532.41;;;3.67;100.00
21086;BME280;34247;50.064;19.970;2023-02-02T03:39:42;98531.44;;;3.70;100.00
21086;BME280;34247;50.064;19.970;2023-02-02T03:40:45;98530.66;;;3.68;100.00
21086;BME280;34247;50.064;19.970;2023-02-02T03:41:49;98534.06;;;3.70;100.00
21086;BME280;34247;50.064;19.970;2023-02-02T03:42:54;98532.03;;;3.75;100.00
21086;BME280;34247;50.064;19.970;2023-02-02T03:43:58;98535.03;;;3.67;100.00
21086;BME280;34247;50.064;19.970;2023-02-02T03:45:02;98538.38;;;3.71;100.00
21086;BME280;34247;50.064;19.970;2023-02-02T03:46:06;98539.13;;;3.73;100.00
21086;BME280;34247;50.064;19.970;2023-02-02T03:47:13;98532.03;;;3.75;100.00
21086;BME280;34247;50.064;19.970;2023-02-02T03:48:17;98538.81;;;3.79;100.00
21086;BME280;34247;50.064;19.970;2023-02-02T03:49:21;98530.00;;;3.80;100.00
21086;BME280;34247;50.064;19.970;2023-02-02T03:50:30;98536.81;;;3.84;100.00
21086;BME280;34247;50.064;19.970;2023-02-02T03:51:37;98538.81;;;3.79;100.00
21086;BME280;34247;50.064;19.970;2023-02-02T03:52:50;98530.19;;;3.77;100.00
21086;BME280;34247;50.064;19.970;2023-02-02T03:54:03;98538.06;;;3.77;100.00
21086;BME280;34247;50.064;19.970;2023-02-02T03:55:18;98541.28;;;3.82;100.00
21086;BME280;34247;50.064;19.970;2023-02-02T03:56:24;98539.50;;;3.82;100.00
21086;BME280;34247;50.064;19.970;2023-02-02T03:57:46;98534.84;;;3.87;100.00
21086;BME280;34247;50.064;19.970;2023-02-02T03:58:58;98527.81;;;3.88;100.00
21086;BME280;34247;50.064;19.970;2023-02-02T04:00:12;98532.06;;;3.91;100.00
21086;BME280;34247;50.064;19.970;2023-02-02T04:01:29;98532.94;;;3.91;100.00
21086;BME280;34247;50.064;19.970;2023-02-02T04:02:44;98524.88;;;3.94;100.00
21086;BME280;34247;50.064;19.970;2023-02-02T04:03:52;98530.38;;;3.90;100.00
21086;BME280;34247;50.064;19.970;2023-02-02T04:05:12;98532.75;;;3.94;100.00
21086;BME280;34247;50.064;19.970;2023-02-02T04:06:22;98536.31;;;3.93;100.00
21086;BME280;34247;50.064;19.970;2023-02-02T04:07:32;98529.94;;;3.97;100.00
21086;BME280;34247;50.064;19.970;2023-02-02T04:08:41;98533.44;;;3.98;100.00
21086;BME280;34247;50.064;19.970;2023-02-02T04:10:06;98530.31;;;3.91;100.00
21086;BME280;34247;50.064;19.970;2023-02-02T04:11:14;98536.53;;;3.88;100.00
21086;BME280;34247;50.064;19.970;2023-02-02T04:12:24;98536.81;;;3.84;100.00
21086;BME280;34247;50.064;19.970;2023-02-02T04:13:41;98527.75;;;3.90;100.00
21086;BME280;34247;50.064;19.970;2023-02-02T04:15:04;98539.25;;;3.87;100.00
21086;BME280;34247;50.064;19.970;2023-02-02T04:16:23;98542.66;;;3.89;100.00
21086;BME280;34247;50.064;19.970;2023-02-02T04:17:33;98539.19;;;3.88;100.00
21086;BME280;34247;50.064;19.970;2023-02-02T04:19:05;98534.63;;;3.92;100.00
21086;BME280;34247;50.064;19.970;2023-02-02T04:20:26;98535.03;;;3.84;100.00
21086;BME280;34247;50.064;19.970;2023-02-02T04:21:39;98537.72;;;3.83;100.00
21086;BME280;34247;50.064;19.970;2023-02-02T04:22:53;98533.41;;;3.82;100.00
21086;BME280;34247;50.064;19.970;2023-02-02T04:24:22;98535.69;;;3.88;100.00
21086;BME280;34247;50.064;19.970;2023-02-02T04:25:52;98534.94;;;3.86;100.00
21086;BME280;34247;50.064;19.970;2023-02-02T04:27:04;98537.41;;;3.89;100.00
21086;BME280;34247;50.064;19.970;2023-02-02T04:28:31;98534.00;;;3.87;100.00
21086;BME280;34247;50.064;19.970;2023-02-02T04:29:38;98533.31;;;3.83;100.00
21086;BME280;34247;50.064;19.970;2023-02-02T04:30:55;98534.84;;;3.87;100.00
21086;BME280;34247;50.064;19.970;2023-02-02T04:32:33;98531.16;;;3.92;100.00
21086;BME280;34247;50.064;19.970;2023-02-02T04:33:44;98528.16;;;3.98;100.00
21086;BME280;34247;50.064;19.970;2023-02-02T04:34:52;98538.63;;;3.99;100.00
21086;BME280;34247;50.064;19.970;2023-02-02T04:35:58;98543.16;;;3.96;100.00
21086;BME280;34247;50.064;19.970;2023-02-02T04:37:07;98532.56;;;3.97;100.00
21086;BME280;34247;50.064;19.970;2023-02-02T04:38:37;98539.88;;;3.92;100.00
21086;BME280;34247;50.064;19.970;2023-02-02T04:40:04;98533.84;;;3.90;100.00
21086;BME280;34247;50.064;19.970;2023-02-02T04:41:46;98539.09;;;3.90;100.00
21086;BME280;34247;50.064;19.970;2023-02-02T04:43:21;98543.56;;;3.88;100.00
21086;BME280;34247;50.064;19.970;2023-02-02T04:44:34;98533.00;;;3.90;100.00
21086;BME280;34247;50.064;19.970;2023-02-02T04:45:54;98545.44;;;3.86;100.00
21086;BME280;34247;50.064;19.970;2023-02-02T04:47:08;98536.88;;;3.82;100.00
21086;BME280;34247;50.064;19.970;2023-02-02T04:48:19;98542.28;;;3.79;100.00
21086;BME280;34247;50.064;19.970;2023-02-02T04:49:35;98533.47;;;3.80;100.00
21086;BME280;34247;50.064;19.970;2023-02-02T04:51:15;98536.53;;;3.88;100.00
21086;BME280;34247;50.064;19.970;2023-02-02T04:52:28;98540.03;;;3.89;100.00
21086;BME280;34247;50.064;19.970;2023-02-02T04:53:34;98538.19;;;3.91;100.00
21086;BME280;34247;50.064;19.970;2023-02-02T04:54:42;98530.88;;;3.96;100.00
21086;BME280;34247;50.064;19.970;2023-02-02T04:55:52;98541.66;;;3.92;100.00
21086;BME280;34247;50.064;19.970;2023-02-02T04:57:02;98531.38;;;3.87;100.00
21086;BME280;34247;50.064;19.970;2023-02-02T04:58:12;98532.16;;;3.89;100.00
21086;BME280;34247;50.064;19.970;2023-02-02T04:59:28;98536.22;;;3.95;100.00
21086;BME280;34247;50.064;19.970;2023-02-02T05:00:36;98542.41;;;3.94;100.00
21086;BME280;34247;50.064;19.970;2023-02-02T05:01:44;98529.28;;;3.94;100.00
21086;BME280;34247;50.064;19.970;2023-02-02T05:02:52;98539.78;;;3.94;100.00
21086;BME280;34247;50.064;19.970;2023-02-02T05:04:01;98526.66;;;3.94;100.00
21086;BME280;34247;50.064;19.970;2023-02-02T05:05:12;98536.22;;;3.95;100.00
21086;BME280;34247;50.064;19.970;2023-02-02T05:06:26;98531.16;;;3.92;100.00
21086;BME280;34247;50.064;19.970;2023-02-02T05:07:31;98532.00;;;3.92;100.00
21086;BME280;34247;50.064;19.970;2023-02-02T05:08:35;98534.69;;;3.91;100.00
21086;BME280;34247;50.064;19.970;2023-02-02T05:10:07;98541.16;;;4.01;100.00
21086;BME280;34247;50.064;19.970;2023-02-02T05:11:19;98539.47;;;4.00;100.00
21086;BME280;34247;50.064;19.970;2023-02-02T05:12:27;98527.19;;;4.00;100.00
21086;BME280;34247;50.064;19.970;2023-02-02T05:13:36;98537.69;;;4.00;100.00
21086;BME280;34247;50.064;19.970;2023-02-02T05:14:46;98537.50;;;4.03;100.00
21086;BME280;34247;50.064;19.970;2023-02-02T05:16:35;98549.13;;;3.99;100.00
21086;BME280;34247;50.064;19.970;2023-02-02T05:17:46;98537.50;;;4.03;100.00
21086;BME280;34247;50.064;19.970;2023-02-02T05:19:21;98538.13;;;4.08;100.00
21086;BME280;34247;50.064;19.970;2023-02-02T05:20:35;98545.56;;;4.00;100.00
21086;BME280;34247;50.064;19.970;2023-02-02T05:21:51;98538.44;;;4.02;100.00
21086;BME280;34247;50.064;19.970;2023-02-02T05:23:03;98542.84;;;4.02;100.00
21086;BME280;34247;50.064;19.970;2023-02-02T05:24:19;98537.59;;;4.02;100.00
21086;BME280;34247;50.064;19.970;2023-02-02T05:25:31;98543.09;;;3.97;100.00
21086;BME280;34247;50.064;19.970;2023-02-02T05:28:30;98541.91;;;4.03;100.00
21086;BME280;34247;50.064;19.970;2023-02-02T05:29:34;98543.88;;;3.99;100.00
21086;BME280;34247;50.064;19.970;2023-02-02T05:30:44;98537.50;;;4.03;100.00
21086;BME280;34247;50.064;19.970;2023-02-02T05:32:01;98531.50;;;4.01;100.00
21086;BME280;34247;50.064;19.970;2023-02-02T05:33:18;98538.44;;;4.02;100.00
21086;BME280;34247;50.064;19.970;2023-02-02T05:34:36;98540.47;;;3.97;100.00
21086;BME280;34247;50.064;19.970;2023-02-02T05:35:50;98528.97;;;4.00;100.00
21086;BME280;34247;50.064;19.970;2023-02-02T05:37:03;98531.25;;;4.06;100.00
21086;BME280;34247;50.064;19.970;2023-02-02T05:38:07;98537.94;;;4.11;100.00
21086;BME280;34247;50.064;19.970;2023-02-02T05:39:13;98533.72;;;4.09;100.00
21086;BME280;34247;50.064;19.970;2023-02-02T05:40:20;98533.19;;;4.02;100.00
21086;BME280;34247;50.064;19.970;2023-02-02T05:41:28;98534.88;;;4.03;100.00
21086;BME280;34247;50.064;19.970;2023-02-02T05:42:32;98532.16;;;4.05;100.00
21086;BME280;34247;50.064;19.970;2023-02-02T05:43:36;98535.59;;;4.07;100.00
21086;BME280;34247;50.064;19.970;2023-02-02T05:44:40;98537.19;;;4.09;100.00
21086;BME280;34247;50.064;19.970;2023-02-02T05:45:48;98542.44;;;4.09;100.00
21086;BME280;34247;50.064;19.970;2023-02-02T05:46:52;98546.84;;;4.09;100.00
21086;BME280;34247;50.064;19.970;2023-02-02T05:47:55;98534.13;;;4.01;100.00
21086;BME280;34247;50.064;19.970;2023-02-02T05:48:59;98541.50;;;4.10;100.00
21086;BME280;34247;50.064;19.970;2023-02-02T05:50:09;98543.06;;;4.14;100.00
21086;BME280;34247;50.064;19.970;2023-02-02T05:51:23;98541.50;;;4.10;100.00
21086;BME280;34247;50.064;19.970;2023-02-02T05:52:34;98538.63;;;4.15;100.00
21086;BME280;34247;50.064;19.970;2023-02-02T05:53:43;98543.88;;;4.15;100.00
21086;BME280;34247;50.064;19.970;2023-02-02T05:55:09;98542.19;;;4.14;100.00
21086;BME280;34247;50.064;19.970;2023-02-02T05:56:18;98547.28;;;4.17;100.00
21086;BME280;34247;50.064;19.970;2023-02-02T05:57:23;98539.25;;;4.20;100.00
21086;BME280;34247;50.064;19.970;2023-02-02T05:58:41;98542.53;;;4.24;100.00
21086;BME280;34247;50.064;19.970;2023-02-02T06:00:04;98544.09;;;4.28;100.00
21086;BME280;34247;50.064;19.970;2023-02-02T06:01:23;98544.31;;;4.23;100.00
21086;BME280;34247;50.064;19.970;2023-02-02T06:02:29;98538.31;;;4.21;100.00
21086;BME280;34247;50.064;19.970;2023-02-02T06:03:35;98529.66;;;4.19;100.00
21086;BME280;34247;50.064;19.970;2023-02-02T06:04:43;98538.31;;;4.21;100.00
21086;BME280;34247;50.064;19.970;2023-02-02T06:05:53;98537.19;;;4.25;100.00
21086;BME280;34247;50.064;19.970;2023-02-02T06:07:15;98530.16;;;4.26;99.78
21086;BME280;34247;50.064;19.970;2023-02-02T06:08:30;98534.47;;;4.27;100.00
21086;BME280;34247;50.064;19.970;2023-02-02T06:09:45;98526.59;;;4.27;99.71
21086;BME280;34247;50.064;19.970;2023-02-02T06:11:17;98528.47;;;4.25;99.56
21086;BME280;34247;50.064;19.970;2023-02-02T06:12:34;98517.13;;;4.24;99.34
21086;BME280;34247;50.064;19.970;2023-02-02T06:13:39;98526.59;;;4.27;99.49
21086;BME280;34247;50.064;19.970;2023-02-02T06:14:54;98526.44;;;4.30;99.52
21086;BME280;34247;50.064;19.970;2023-02-02T06:16:08;98528.38;;;4.26;99.46
21086;BME280;34247;50.064;19.970;2023-02-02T06:17:16;98524.75;;;4.29;98.95
21086;BME280;34247;50.064;19.970;2023-02-02T06:18:23;98522.13;;;4.29;99.04
21086;BME280;34247;50.064;19.970;2023-02-02T06:19:41;98519.84;;;4.23;98.77
21086;BME280;34247;50.064;19.970;2023-02-02T06:20:59;98522.38;;;4.24;98.74
21086;BME280;34247;50.064;19.970;2023-02-02T06:22:07;98518.91;;;4.24;98.51
21086;BME280;34247;50.064;19.970;2023-02-02T06:23:14;98515.19;;;4.28;98.42
21086;BME280;34247;50.064;19.970;2023-02-02T06:24:22;98520.50;;;4.26;98.05
21086;BME280;34247;50.064;19.970;2023-02-02T06:25:28;98517.81;;;4.28;98.00
21086;BME280;34247;50.064;19.970;2023-02-02T06:26:35;98515.34;;;4.25;97.87
21086;BME280;34247;50.064;19.970;2023-02-02T06:27:45;98512.72;;;4.25;97.45
21086;BME280;34247;50.064;19.970;2023-02-02T06:28:56;98522.13;;;4.29;97.08
21086;BME280;34247;50.064;19.970;2023-02-02T06:30:17;98521.34;;;4.27;96.71
21086;BME280;34247;50.064;19.970;2023-02-02T06:31:30;98517.63;;;4.31;97.12
21086;BME280;34247;50.064;19.970;2023-02-02T06:32:35;98515.00;;;4.31;96.47
21086;BME280;34247;50.064;19.970;2023-02-02T06:33:42;98515.84;;;4.31;96.04
21086;BME280;34247;50.064;19.970;2023-02-02T06:34:46;98518.22;;;4.36;95.52
21086;BME280;34247;50.064;19.970;2023-02-02T06:35:50;98509.31;;;4.38;94.87
21086;BME280;34247;50.064;19.970;2023-02-02T06:36:55;98504.91;;;4.39;94.38
21086;BME280;34247;50.064;19.970;2023-02-02T06:38:00;98522.38;;;4.40;94.36
21086;BME280;34247;50.064;19.970;2023-02-02T06:39:17;98518.81;;;4.41;94.17
21086;BME280;34247;50.064;19.970;2023-02-02T06:40:21;98511.72;;;4.43;93.70
21086;BME280;34247;50.064;19.970;2023-02-02T06:43:03;98503.88;;;4.41;93.51
21086;BME280;34247;50.064;19.970;2023-02-02T06:44:16;98515.34;;;4.40;93.23
21086;BME280;34247;50.064;19.970;2023-02-02T06:45:36;98502.63;;;4.33;92.77
21086;BME280;34247;50.064;19.970;2023-02-02T06:46:52;98516.19;;;4.41;92.93
21086;BME280;34247;50.064;19.970;2023-02-02T06:48:03;98515.59;;;4.36;93.05
21086;BME280;34247;50.064;19.970;2023-02-02T06:49:19;98510.34;;;4.36;92.39
21086;BME280;34247;50.064;19.970;2023-02-02T06:50:29;98511.09;;;4.38;92.23
21086;BME280;34247;50.064;19.970;2023-02-02T06:51:52;98504.06;;;4.38;92.36
21086;BME280;34247;50.064;19.970;2023-02-02T06:52:59;98509.16;;;4.41;92.43
21086;BME280;34247;50.064;19.970;2023-02-02T06:54:07;98508.28;;;4.41;92.11
21086;BME280;34247;50.064;19.970;2023-02-02T06:55:24;98502.38;;;4.37;92.96
21086;BME280;34247;50.064;19.970;2023-02-02T06:56:37;98511.94;;;4.38;92.60
21086;BME280;34247;50.064;19.970;2023-02-02T06:57:46;98503.88;;;4.41;92.55
21086;BME280;34247;50.064;19.970;2023-02-02T06:58:52;98510.59;;;4.47;92.56
21086;BME280;34247;50.064;19.970;2023-02-02T07:00:11;98512.13;;;4.51;92.16